sensor_id;sensor_type;location;lat;lon;timestamp;P1;durP1;ratioP1;P2;durP2;ratioP2
65405;SDS011;52016;51.228;-2.322;2023-02-13T00:02:07;13.32;;;10.60;;
65405;SDS011;52016;51.228;-2.322;2023-02-13T00:05:49;13.35;;;9.93;;
65405;SDS011;52016;51.228;-2.322;2023-02-13T00:09:32;11.45;;;9.80;;
65405;SDS011;52016;51.228;-2.322;2023-02-13T00:13:14;14.00;;;10.38;;
65405;SDS011;52016;51.228;-2.322;2023-02-13T00:16:56;11.27;;;9.55;;
65405;SDS011;52016;51.228;-2.322;2023-02-13T00:20:38;13.13;;;9.65;;
65405;SDS011;52016;51.228;-2.322;2023-02-13T00:24:20;12.90;;;9.57;;
65405;SDS011;52016;51.228;-2.322;2023-02-13T00:28:02;15.35;;;10.02;;
65405;SDS011;52016;51.228;-2.322;2023-02-13T00:31:44;16.27;;;10.82;;
65405;SDS011;52016;51.228;-2.322;2023-02-13T00:35:26;14.20;;;10.07;;
65405;SDS011;52016;51.228;-2.322;2023-02-13T00:39:11;12.65;;;9.77;;
65405;SDS011;52016;51.228;-2.322;2023-02-13T00:42:53;12.00;;;9.98;;
65405;SDS011;52016;51.228;-2.322;2023-02-13T00:46:35;11.63;;;9.52;;
65405;SDS011;52016;51.228;-2.322;2023-02-13T00:50:18;13.27;;;10.10;;
65405;SDS011;52016;51.228;-2.322;2023-02-13T00:54:00;12.57;;;10.05;;
65405;SDS011;52016;51.228;-2.322;2023-02-13T00:57:42;12.38;;;9.75;;
65405;SDS011;52016;51.228;-2.322;2023-02-13T01:01:24;14.25;;;10.07;;
65405;SDS011;52016;51.228;-2.322;2023-02-13T01:05:06;15.70;;;10.85;;
65405;SDS011;52016;51.228;-2.322;2023-02-13T01:08:48;14.15;;;9.85;;
65405;SDS011;52016;51.228;-2.322;2023-02-13T01:12:30;17.27;;;11.30;;
65405;SDS011;52016;51.228;-2.322;2023-02-13T01:16:12;13.98;;;10.77;;
65405;SDS011;52016;51.228;-2.322;2023-02-13T01:19:58;15.10;;;11.07;;
65405;SDS011;52016;51.228;-2.322;2023-02-13T01:23:40;14.52;;;10.68;;
65405;SDS011;52016;51.228;-2.322;2023-02-13T01:27:22;16.40;;;10.55;;
65405;SDS011;52016;51.228;-2.322;2023-02-13T01:31:04;17.88;;;11.77;;
65405;SDS011;52016;51.228;-2.322;2023-02-13T01:34:47;14.30;;;11.30;;
65405;SDS011;52016;51.228;-2.322;2023-02-13T01:38:33;16.40;;;12.90;;
65405;SDS011;52016;51.228;-2.322;2023-02-13T01:42:16;15.43;;;11.35;;
65405;SDS011;52016;51.228;-2.322;2023-02-13T01:46:05;16.38;;;11.07;;
65405;SDS011;52016;51.228;-2.322;2023-02-13T01:49:47;15.02;;;11.07;;
65405;SDS011;52016;51.228;-2.322;2023-02-13T01:53:42;15.43;;;10.82;;
65405;SDS011;52016;51.228;-2.322;2023-02-13T01:57:28;15.00;;;11.15;;
65405;SDS011;52016;51.228;-2.322;2023-02-13T02:01:13;16.02;;;11.13;;
65405;SDS011;52016;51.228;-2.322;2023-02-13T02:04:55;14.77;;;11.40;;
65405;SDS011;52016;51.228;-2.322;2023-02-13T02:08:37;16.13;;;11.10;;
65405;SDS011;52016;51.228;-2.322;2023-02-13T02:16:24;15.18;;;11.73;;
65405;SDS011;52016;51.228;-2.322;2023-02-13T02:52:44;17.23;;;11.45;;
65405;SDS011;52016;51.228;-2.322;2023-02-13T02:56:35;19.23;;;11.55;;
65405;SDS011;52016;51.228;-2.322;2023-02-13T03:00:21;17.38;;;11.82;;
65405;SDS011;52016;51.228;-2.322;2023-02-13T03:04:39;17.70;;;11.68;;
65405;SDS011;52016;51.228;-2.322;2023-02-13T03:08:56;16.33;;;11.75;;
65405;SDS011;52016;51.228;-2.322;2023-02-13T03:13:02;16.23;;;12.13;;
65405;SDS011;52016;51.228;-2.322;2023-02-13T03:17:03;18.25;;;12.65;;
65405;SDS011;52016;51.228;-2.322;2023-02-13T03:21:09;16.33;;;11.43;;
65405;SDS011;52016;51.228;-2.322;2023-02-13T03:29:48;18.45;;;12.07;;
65405;SDS011;52016;51.228;-2.322;2023-02-13T03:37:39;18.58;;;11.82;;
65405;SDS011;52016;51.228;-2.322;2023-02-13T03:41:40;16.70;;;12.27;;
65405;SDS011;52016;51.228;-2.322;2023-02-13T03:45:32;17.58;;;11.68;;
65405;SDS011;52016;51.228;-2.322;2023-02-13T03:49:38;18.42;;;12.75;;
65405;SDS011;52016;51.228;-2.322;2023-02-13T03:53:42;19.75;;;12.75;;
65405;SDS011;52016;51.228;-2.322;2023-02-13T03:57:28;16.13;;;12.27;;
65405;SDS011;52016;51.228;-2.322;2023-02-13T04:01:33;17.23;;;12.55;;
65405;SDS011;52016;51.228;-2.322;2023-02-13T04:05:19;18.30;;;11.85;;
65405;SDS011;52016;51.228;-2.322;2023-02-13T04:09:03;17.60;;;12.00;;
65405;SDS011;52016;51.228;-2.322;2023-02-13T04:16:56;19.27;;;12.23;;
65405;SDS011;52016;51.228;-2.322;2023-02-13T04:20:46;15.73;;;11.13;;
65405;SDS011;52016;51.228;-2.322;2023-02-13T04:24:29;17.50;;;12.05;;
65405;SDS011;52016;51.228;-2.322;2023-02-13T04:28:11;16.98;;;11.82;;
65405;SDS011;52016;51.228;-2.322;2023-02-13T04:31:53;19.13;;;12.27;;
65405;SDS011;52016;51.228;-2.322;2023-02-13T04:35:35;18.23;;;11.65;;
65405;SDS011;52016;51.228;-2.322;2023-02-13T04:39:17;20.35;;;12.52;;
65405;SDS011;52016;51.228;-2.322;2023-02-13T04:42:59;20.98;;;12.90;;
65405;SDS011;52016;51.228;-2.322;2023-02-13T04:46:41;21.63;;;11.73;;
65405;SDS011;52016;51.228;-2.322;2023-02-13T04:50:23;17.80;;;12.38;;
65405;SDS011;52016;51.228;-2.322;2023-02-13T04:54:06;18.45;;;12.23;;
65405;SDS011;52016;51.228;-2.322;2023-02-13T04:57:50;18.30;;;12.20;;
65405;SDS011;52016;51.228;-2.322;2023-02-13T05:01:36;18.88;;;12.82;;
65405;SDS011;52016;51.228;-2.322;2023-02-13T05:05:18;20.02;;;12.90;;
65405;SDS011;52016;51.228;-2.322;2023-02-13T05:09:01;20.00;;;14.18;;
65405;SDS011;52016;51.228;-2.322;2023-02-13T05:12:43;19.73;;;12.73;;
65405;SDS011;52016;51.228;-2.322;2023-02-13T05:16:25;21.08;;;12.98;;
65405;SDS011;52016;51.228;-2.322;2023-02-13T05:20:07;17.55;;;12.23;;
65405;SDS011;52016;51.228;-2.322;2023-02-13T05:23:49;20.40;;;13.50;;
65405;SDS011;52016;51.228;-2.322;2023-02-13T05:27:31;21.13;;;13.18;;
65405;SDS011;52016;51.228;-2.322;2023-02-13T05:31:13;17.38;;;12.88;;
65405;SDS011;52016;51.228;-2.322;2023-02-13T05:34:55;17.58;;;12.90;;
65405;SDS011;52016;51.228;-2.322;2023-02-13T05:38:37;18.70;;;12.50;;
65405;SDS011;52016;51.228;-2.322;2023-02-13T05:42:21;19.08;;;13.13;;
65405;SDS011;52016;51.228;-2.322;2023-02-13T05:46:04;18.45;;;12.38;;
65405;SDS011;52016;51.228;-2.322;2023-02-13T05:49:48;16.48;;;12.35;;
65405;SDS011;52016;51.228;-2.322;2023-02-13T05:53:30;18.02;;;13.20;;
65405;SDS011;52016;51.228;-2.322;2023-02-13T05:57:15;22.17;;;13.32;;
65405;SDS011;52016;51.228;-2.322;2023-02-13T06:00:58;20.20;;;12.70;;
65405;SDS011;52016;51.228;-2.322;2023-02-13T06:04:40;20.20;;;13.88;;
65405;SDS011;52016;51.228;-2.322;2023-02-13T06:08:22;19.13;;;13.32;;
65405;SDS011;52016;51.228;-2.322;2023-02-13T06:12:05;21.55;;;12.93;;
65405;SDS011;52016;51.228;-2.322;2023-02-13T06:15:48;19.95;;;13.77;;
65405;SDS011;52016;51.228;-2.322;2023-02-13T06:19:31;20.92;;;14.23;;
65405;SDS011;52016;51.228;-2.322;2023-02-13T06:23:13;18.85;;;13.43;;
65405;SDS011;52016;51.228;-2.322;2023-02-13T06:26:55;21.02;;;13.85;;
65405;SDS011;52016;51.228;-2.322;2023-02-13T06:30:38;21.27;;;14.00;;
65405;SDS011;52016;51.228;-2.322;2023-02-13T06:34:20;23.02;;;13.75;;
65405;SDS011;52016;51.228;-2.322;2023-02-13T06:38:02;21.20;;;14.02;;
65405;SDS011;52016;51.228;-2.322;2023-02-13T06:41:44;22.55;;;15.57;;
65405;SDS011;52016;51.228;-2.322;2023-02-13T06:45:26;24.83;;;15.57;;
65405;SDS011;52016;51.228;-2.322;2023-02-13T06:49:08;23.92;;;15.45;;
65405;SDS011;52016;51.228;-2.322;2023-02-13T06:52:50;23.75;;;15.40;;
65405;SDS011;52016;51.228;-2.322;2023-02-13T06:56:32;25.52;;;15.20;;
65405;SDS011;52016;51.228;-2.322;2023-02-13T07:00:15;23.30;;;15.93;;
65405;SDS011;52016;51.228;-2.322;2023-02-13T07:07:39;29.50;;;16.45;;
65405;SDS011;52016;51.228;-2.322;2023-02-13T07:15:21;23.50;;;16.50;;
65405;SDS011;52016;51.228;-2.322;2023-02-13T07:19:03;24.83;;;16.30;;
65405;SDS011;52016;51.228;-2.322;2023-02-13T07:22:45;24.13;;;15.30;;
65405;SDS011;52016;51.228;-2.322;2023-02-13T07:26:27;21.40;;;14.90;;
65405;SDS011;52016;51.228;-2.322;2023-02-13T07:30:10;27.08;;;15.23;;
65405;SDS011;52016;51.228;-2.322;2023-02-13T07:33:52;24.70;;;14.75;;
65405;SDS011;52016;51.228;-2.322;2023-02-13T07:37:34;23.98;;;15.13;;
65405;SDS011;52016;51.228;-2.322;2023-02-13T07:41:16;19.05;;;14.10;;
65405;SDS011;52016;51.228;-2.322;2023-02-13T07:44:58;23.80;;;15.40;;
65405;SDS011;52016;51.228;-2.322;2023-02-13T07:48:40;25.42;;;15.35;;
65405;SDS011;52016;51.228;-2.322;2023-02-13T07:52:22;24.95;;;15.23;;
65405;SDS011;52016;51.228;-2.322;2023-02-13T07:56:07;22.65;;;14.38;;
65405;SDS011;52016;51.228;-2.322;2023-02-13T07:59:50;21.95;;;14.25;;
65405;SDS011;52016;51.228;-2.322;2023-02-13T08:03:32;24.42;;;15.15;;
65405;SDS011;52016;51.228;-2.322;2023-02-13T08:07:15;24.85;;;15.25;;
65405;SDS011;52016;51.228;-2.322;2023-02-13T08:11:02;24.08;;;15.13;;
65405;SDS011;52016;51.228;-2.322;2023-02-13T08:15:12;23.92;;;15.43;;
65405;SDS011;52016;51.228;-2.322;2023-02-13T08:18:55;26.90;;;15.68;;
65405;SDS011;52016;51.228;-2.322;2023-02-13T08:22:37;20.75;;;15.10;;
65405;SDS011;52016;51.228;-2.322;2023-02-13T08:26:20;27.35;;;16.00;;
65405;SDS011;52016;51.228;-2.322;2023-02-13T08:30:02;25.02;;;16.48;;
65405;SDS011;52016;51.228;-2.322;2023-02-13T08:33:45;25.10;;;16.05;;
65405;SDS011;52016;51.228;-2.322;2023-02-13T08:37:27;25.05;;;16.20;;
65405;SDS011;52016;51.228;-2.322;2023-02-13T08:41:09;26.42;;;17.40;;
65405;SDS011;52016;51.228;-2.322;2023-02-13T08:44:51;26.13;;;16.52;;
65405;SDS011;52016;51.228;-2.322;2023-02-13T08:48:33;25.00;;;17.23;;
65405;SDS011;52016;51.228;-2.322;2023-02-13T08:52:15;27.38;;;16.58;;
65405;SDS011;52016;51.228;-2.322;2023-02-13T08:55:57;28.77;;;17.58;;
65405;SDS011;52016;51.228;-2.322;2023-02-13T08:59:39;23.73;;;17.17;;
65405;SDS011;52016;51.228;-2.322;2023-02-13T09:03:21;28.63;;;17.17;;
65405;SDS011;52016;51.228;-2.322;2023-02-13T09:07:03;29.10;;;17.85;;
65405;SDS011;52016;51.228;-2.322;2023-02-13T09:10:45;27.50;;;17.33;;
65405;SDS011;52016;51.228;-2.322;2023-02-13T09:14:27;28.52;;;18.00;;
65405;SDS011;52016;51.228;-2.322;2023-02-13T09:18:09;25.27;;;17.65;;
65405;SDS011;52016;51.228;-2.322;2023-02-13T09:21:51;30.63;;;18.33;;
65405;SDS011;52016;51.228;-2.322;2023-02-13T09:25:33;24.30;;;17.73;;
65405;SDS011;52016;51.228;-2.322;2023-02-13T09:29:15;28.67;;;17.38;;
65405;SDS011;52016;51.228;-2.322;2023-02-13T09:32:57;24.77;;;17.67;;
65405;SDS011;52016;51.228;-2.322;2023-02-13T09:36:40;30.30;;;19.58;;
65405;SDS011;52016;51.228;-2.322;2023-02-13T09:40:27;31.65;;;20.58;;
65405;SDS011;52016;51.228;-2.322;2023-02-13T09:44:17;30.90;;;18.63;;
65405;SDS011;52016;51.228;-2.322;2023-02-13T09:48:22;29.30;;;19.55;;
65405;SDS011;52016;51.228;-2.322;2023-02-13T09:52:09;26.90;;;18.52;;
65405;SDS011;52016;51.228;-2.322;2023-02-13T09:55:57;31.58;;;18.00;;
65405;SDS011;52016;51.228;-2.322;2023-02-13T10:00:03;31.85;;;18.98;;
65405;SDS011;52016;51.228;-2.322;2023-02-13T10:12:02;36.08;;;19.88;;
65405;SDS011;52016;51.228;-2.322;2023-02-13T10:16:08;39.75;;;19.98;;
65405;SDS011;52016;51.228;-2.322;2023-02-13T10:20:00;48.40;;;20.52;;
65405;SDS011;52016;51.228;-2.322;2023-02-13T10:23:52;32.95;;;19.33;;
65405;SDS011;52016;51.228;-2.322;2023-02-13T10:27:39;36.50;;;19.65;;
65405;SDS011;52016;51.228;-2.322;2023-02-13T10:31:24;62.00;;;20.33;;
65405;SDS011;52016;51.228;-2.322;2023-02-13T10:39:22;27.92;;;19.42;;
65405;SDS011;52016;51.228;-2.322;2023-02-13T10:43:06;70.32;;;21.02;;
65405;SDS011;52016;51.228;-2.322;2023-02-13T10:50:44;29.63;;;19.10;;
65405;SDS011;52016;51.228;-2.322;2023-02-13T10:54:56;73.63;;;22.15;;
65405;SDS011;52016;51.228;-2.322;2023-02-13T10:58:49;34.33;;;19.27;;
65405;SDS011;52016;51.228;-2.322;2023-02-13T11:02:45;29.95;;;18.75;;
65405;SDS011;52016;51.228;-2.322;2023-02-13T11:06:27;53.53;;;19.17;;
65405;SDS011;52016;51.228;-2.322;2023-02-13T11:10:20;33.15;;;19.02;;
65405;SDS011;52016;51.228;-2.322;2023-02-13T11:14:08;47.90;;;21.17;;
65405;SDS011;52016;51.228;-2.322;2023-02-13T11:17:57;38.60;;;21.40;;
65405;SDS011;52016;51.228;-2.322;2023-02-13T11:22:06;100.95;;;22.00;;
65405;SDS011;52016;51.228;-2.322;2023-02-13T11:29:56;42.83;;;20.02;;
65405;SDS011;52016;51.228;-2.322;2023-02-13T11:33:39;31.95;;;19.63;;
65405;SDS011;52016;51.228;-2.322;2023-02-13T11:37:26;31.38;;;19.17;;
65405;SDS011;52016;51.228;-2.322;2023-02-13T11:41:11;49.15;;;18.58;;
65405;SDS011;52016;51.228;-2.322;2023-02-13T11:44:57;31.88;;;17.77;;
65405;SDS011;52016;51.228;-2.322;2023-02-13T11:48:42;44.60;;;18.17;;
65405;SDS011;52016;51.228;-2.322;2023-02-13T11:52:31;31.30;;;18.17;;
65405;SDS011;52016;51.228;-2.322;2023-02-13T11:56:15;24.80;;;17.27;;
65405;SDS011;52016;51.228;-2.322;2023-02-13T11:59:58;35.67;;;19.05;;
65405;SDS011;52016;51.228;-2.322;2023-02-13T12:03:41;22.67;;;16.35;;
65405;SDS011;52016;51.228;-2.322;2023-02-13T12:07:28;24.60;;;17.17;;
65405;SDS011;52016;51.228;-2.322;2023-02-13T12:11:28;37.10;;;17.92;;
65405;SDS011;52016;51.228;-2.322;2023-02-13T12:15:42;30.48;;;17.02;;
65405;SDS011;52016;51.228;-2.322;2023-02-13T12:19:34;25.35;;;17.20;;
65405;SDS011;52016;51.228;-2.322;2023-02-13T12:23:37;31.65;;;17.50;;
65405;SDS011;52016;51.228;-2.322;2023-02-13T12:39:36;24.35;;;17.98;;
65405;SDS011;52016;51.228;-2.322;2023-02-13T12:47:13;26.63;;;17.60;;
65405;SDS011;52016;51.228;-2.322;2023-02-13T12:55:31;27.45;;;16.80;;
65405;SDS011;52016;51.228;-2.322;2023-02-13T13:03:50;22.05;;;16.25;;
65405;SDS011;52016;51.228;-2.322;2023-02-13T13:07:53;22.45;;;16.85;;
65405;SDS011;52016;51.228;-2.322;2023-02-13T13:15:44;28.55;;;17.83;;
65405;SDS011;52016;51.228;-2.322;2023-02-13T13:23:31;39.92;;;16.88;;
65405;SDS011;52016;51.228;-2.322;2023-02-13T13:27:35;23.88;;;17.65;;
65405;SDS011;52016;51.228;-2.322;2023-02-13T13:31:24;27.23;;;18.05;;
65405;SDS011;52016;51.228;-2.322;2023-02-13T13:35:14;25.85;;;16.38;;
65405;SDS011;52016;51.228;-2.322;2023-02-13T13:39:01;23.42;;;16.25;;
65405;SDS011;52016;51.228;-2.322;2023-02-13T13:51:15;25.88;;;16.15;;
65405;SDS011;52016;51.228;-2.322;2023-02-13T13:54:59;43.80;;;15.88;;
65405;SDS011;52016;51.228;-2.322;2023-02-13T13:58:45;34.53;;;14.90;;
65405;SDS011;52016;51.228;-2.322;2023-02-13T14:02:49;30.27;;;15.05;;
65405;SDS011;52016;51.228;-2.322;2023-02-13T14:18:24;37.10;;;15.38;;
65405;SDS011;52016;51.228;-2.322;2023-02-13T14:26:12;20.90;;;14.40;;
65405;SDS011;52016;51.228;-2.322;2023-02-13T14:30:23;20.02;;;14.25;;
65405;SDS011;52016;51.228;-2.322;2023-02-13T14:37:59;19.00;;;13.63;;
65405;SDS011;52016;51.228;-2.322;2023-02-13T14:45:41;24.98;;;14.00;;
65405;SDS011;52016;51.228;-2.322;2023-02-13T14:49:30;20.02;;;13.48;;
65405;SDS011;52016;51.228;-2.322;2023-02-13T14:53:16;23.23;;;14.38;;
65405;SDS011;52016;51.228;-2.322;2023-02-13T15:01:01;23.92;;;15.63;;
65405;SDS011;52016;51.228;-2.322;2023-02-13T15:04:56;31.58;;;14.77;;
65405;SDS011;52016;51.228;-2.322;2023-02-13T15:08:47;32.85;;;15.68;;
65405;SDS011;52016;51.228;-2.322;2023-02-13T15:12:35;24.75;;;15.48;;
65405;SDS011;52016;51.228;-2.322;2023-02-13T15:16:18;21.05;;;15.40;;
65405;SDS011;52016;51.228;-2.322;2023-02-13T15:20:05;31.70;;;14.80;;
65405;SDS011;52016;51.228;-2.322;2023-02-13T15:23:54;19.30;;;15.25;;
65405;SDS011;52016;51.228;-2.322;2023-02-13T15:27:39;22.27;;;15.77;;
65405;SDS011;52016;51.228;-2.322;2023-02-13T15:31:30;36.53;;;16.55;;
65405;SDS011;52016;51.228;-2.322;2023-02-13T15:35:25;37.65;;;16.00;;
65405;SDS011;52016;51.228;-2.322;2023-02-13T15:39:15;28.70;;;17.05;;
65405;SDS011;52016;51.228;-2.322;2023-02-13T15:43:00;32.15;;;16.05;;
65405;SDS011;52016;51.228;-2.322;2023-02-13T15:46:42;28.80;;;14.63;;
65405;SDS011;52016;51.228;-2.322;2023-02-13T15:50:34;24.25;;;15.80;;
65405;SDS011;52016;51.228;-2.322;2023-02-13T15:58:08;20.88;;;16.00;;
65405;SDS011;52016;51.228;-2.322;2023-02-13T16:01:53;18.65;;;15.43;;
65405;SDS011;52016;51.228;-2.322;2023-02-13T16:13:14;26.67;;;16.33;;
65405;SDS011;52016;51.228;-2.322;2023-02-13T16:17:05;47.45;;;16.35;;
65405;SDS011;52016;51.228;-2.322;2023-02-13T16:20:53;24.67;;;14.88;;
65405;SDS011;52016;51.228;-2.322;2023-02-13T16:24:37;26.23;;;16.58;;
65405;SDS011;52016;51.228;-2.322;2023-02-13T16:28:22;37.10;;;17.77;;
65405;SDS011;52016;51.228;-2.322;2023-02-13T16:32:08;25.67;;;17.08;;
65405;SDS011;52016;51.228;-2.322;2023-02-13T16:39:50;52.55;;;20.67;;
65405;SDS011;52016;51.228;-2.322;2023-02-13T16:43:36;31.05;;;18.63;;
65405;SDS011;52016;51.228;-2.322;2023-02-13T16:47:23;27.58;;;17.60;;
65405;SDS011;52016;51.228;-2.322;2023-02-13T16:51:05;33.97;;;16.77;;
65405;SDS011;52016;51.228;-2.322;2023-02-13T16:54:57;23.20;;;16.27;;
65405;SDS011;52016;51.228;-2.322;2023-02-13T16:58:43;30.35;;;17.27;;
65405;SDS011;52016;51.228;-2.322;2023-02-13T17:02:32;24.90;;;17.33;;
65405;SDS011;52016;51.228;-2.322;2023-02-13T17:06:18;23.98;;;16.92;;
65405;SDS011;52016;51.228;-2.322;2023-02-13T17:10:02;20.85;;;16.55;;
65405;SDS011;52016;51.228;-2.322;2023-02-13T17:13:46;26.63;;;17.95;;
65405;SDS011;52016;51.228;-2.322;2023-02-13T17:17:30;29.83;;;18.10;;
65405;SDS011;52016;51.228;-2.322;2023-02-13T17:21:12;27.73;;;18.27;;
65405;SDS011;52016;51.228;-2.322;2023-02-13T17:24:55;34.47;;;21.80;;
65405;SDS011;52016;51.228;-2.322;2023-02-13T17:28:37;28.05;;;20.27;;
65405;SDS011;52016;51.228;-2.322;2023-02-13T17:32:21;31.48;;;20.27;;
65405;SDS011;52016;51.228;-2.322;2023-02-13T17:36:05;27.70;;;19.90;;
65405;SDS011;52016;51.228;-2.322;2023-02-13T17:39:47;30.80;;;21.95;;
65405;SDS011;52016;51.228;-2.322;2023-02-13T17:43:30;34.63;;;22.00;;
65405;SDS011;52016;51.228;-2.322;2023-02-13T17:47:13;35.17;;;25.27;;
65405;SDS011;52016;51.228;-2.322;2023-02-13T17:50:55;36.63;;;26.73;;
65405;SDS011;52016;51.228;-2.322;2023-02-13T17:54:38;38.00;;;27.45;;
65405;SDS011;52016;51.228;-2.322;2023-02-13T17:58:20;36.50;;;27.63;;
65405;SDS011;52016;51.228;-2.322;2023-02-13T18:02:05;36.70;;;26.15;;
65405;SDS011;52016;51.228;-2.322;2023-02-13T18:05:52;36.03;;;26.08;;
65405;SDS011;52016;51.228;-2.322;2023-02-13T18:09:34;38.75;;;28.63;;
65405;SDS011;52016;51.228;-2.322;2023-02-13T18:13:16;40.97;;;28.95;;
65405;SDS011;52016;51.228;-2.322;2023-02-13T18:16:58;40.65;;;31.27;;
65405;SDS011;52016;51.228;-2.322;2023-02-13T18:20:41;46.20;;;30.92;;
65405;SDS011;52016;51.228;-2.322;2023-02-13T18:24:27;41.85;;;28.58;;
65405;SDS011;52016;51.228;-2.322;2023-02-13T18:28:10;34.30;;;25.40;;
65405;SDS011;52016;51.228;-2.322;2023-02-13T18:31:53;34.38;;;25.20;;
65405;SDS011;52016;51.228;-2.322;2023-02-13T18:35:35;35.35;;;25.38;;
65405;SDS011;52016;51.228;-2.322;2023-02-13T18:39:17;45.08;;;26.45;;
65405;SDS011;52016;51.228;-2.322;2023-02-13T18:43:00;37.33;;;25.23;;
65405;SDS011;52016;51.228;-2.322;2023-02-13T18:46:43;35.53;;;25.10;;
65405;SDS011;52016;51.228;-2.322;2023-02-13T18:50:25;38.95;;;26.50;;
65405;SDS011;52016;51.228;-2.322;2023-02-13T18:54:07;39.25;;;25.00;;
65405;SDS011;52016;51.228;-2.322;2023-02-13T18:57:52;37.47;;;27.50;;
65405;SDS011;52016;51.228;-2.322;2023-02-13T19:01:34;38.30;;;28.25;;
65405;SDS011;52016;51.228;-2.322;2023-02-13T19:05:17;36.15;;;26.15;;
65405;SDS011;52016;51.228;-2.322;2023-02-13T19:08:59;39.92;;;28.65;;
65405;SDS011;52016;51.228;-2.322;2023-02-13T19:12:41;39.72;;;29.42;;
65405;SDS011;52016;51.228;-2.322;2023-02-13T19:16:23;41.72;;;30.30;;
65405;SDS011;52016;51.228;-2.322;2023-02-13T19:20:06;47.38;;;32.45;;
65405;SDS011;52016;51.228;-2.322;2023-02-13T19:23:49;46.63;;;34.45;;
65405;SDS011;52016;51.228;-2.322;2023-02-13T19:27:31;44.95;;;31.45;;
65405;SDS011;52016;51.228;-2.322;2023-02-13T19:31:18;47.30;;;31.92;;
65405;SDS011;52016;51.228;-2.322;2023-02-13T19:35:02;42.90;;;30.85;;
65405;SDS011;52016;51.228;-2.322;2023-02-13T19:38:44;47.08;;;33.25;;
65405;SDS011;52016;51.228;-2.322;2023-02-13T19:42:26;49.92;;;34.40;;
65405;SDS011;52016;51.228;-2.322;2023-02-13T19:46:09;43.35;;;32.25;;
65405;SDS011;52016;51.228;-2.322;2023-02-13T19:57:14;47.95;;;34.40;;
65405;SDS011;52016;51.228;-2.322;2023-02-13T20:01:06;46.80;;;32.38;;
65405;SDS011;52016;51.228;-2.322;2023-02-13T20:04:53;42.28;;;30.60;;
65405;SDS011;52016;51.228;-2.322;2023-02-13T20:08:38;40.72;;;30.02;;
65405;SDS011;52016;51.228;-2.322;2023-02-13T20:13:20;42.65;;;29.98;;
65405;SDS011;52016;51.228;-2.322;2023-02-13T20:17:02;39.00;;;30.40;;
65405;SDS011;52016;51.228;-2.322;2023-02-13T20:20:45;45.53;;;31.20;;
65405;SDS011;52016;51.228;-2.322;2023-02-13T20:24:27;41.38;;;30.20;;
65405;SDS011;52016;51.228;-2.322;2023-02-13T20:28:09;47.17;;;30.15;;
65405;SDS011;52016;51.228;-2.322;2023-02-13T20:31:51;38.75;;;28.00;;
65405;SDS011;52016;51.228;-2.322;2023-02-13T20:35:34;41.40;;;30.27;;
65405;SDS011;52016;51.228;-2.322;2023-02-13T20:39:16;41.95;;;30.27;;
65405;SDS011;52016;51.228;-2.322;2023-02-13T20:42:58;42.80;;;31.27;;
65405;SDS011;52016;51.228;-2.322;2023-02-13T20:46:40;46.25;;;31.27;;
65405;SDS011;52016;51.228;-2.322;2023-02-13T20:50:22;46.63;;;32.50;;
65405;SDS011;52016;51.228;-2.322;2023-02-13T20:54:04;44.00;;;31.30;;
65405;SDS011;52016;51.228;-2.322;2023-02-13T20:57:46;50.35;;;34.10;;
65405;SDS011;52016;51.228;-2.322;2023-02-13T21:01:30;49.70;;;35.15;;
65405;SDS011;52016;51.228;-2.322;2023-02-13T21:05:13;51.55;;;35.17;;
65405;SDS011;52016;51.228;-2.322;2023-02-13T21:08:55;48.38;;;34.20;;
65405;SDS011;52016;51.228;-2.322;2023-02-13T21:12:37;52.03;;;34.70;;
65405;SDS011;52016;51.228;-2.322;2023-02-13T21:16:21;49.97;;;34.50;;
65405;SDS011;52016;51.228;-2.322;2023-02-13T21:20:06;49.33;;;32.67;;
65405;SDS011;52016;51.228;-2.322;2023-02-13T21:23:52;54.10;;;34.80;;
65405;SDS011;52016;51.228;-2.322;2023-02-13T21:27:35;52.03;;;33.20;;
65405;SDS011;52016;51.228;-2.322;2023-02-13T21:31:18;49.65;;;32.58;;
65405;SDS011;52016;51.228;-2.322;2023-02-13T21:35:09;52.42;;;32.50;;
65405;SDS011;52016;51.228;-2.322;2023-02-13T21:38:51;49.05;;;33.25;;
65405;SDS011;52016;51.228;-2.322;2023-02-13T21:42:34;51.90;;;34.65;;
65405;SDS011;52016;51.228;-2.322;2023-02-13T21:46:17;51.03;;;34.00;;
65405;SDS011;52016;51.228;-2.322;2023-02-13T21:50:01;55.83;;;35.85;;
65405;SDS011;52016;51.228;-2.322;2023-02-13T21:53:44;53.13;;;35.95;;
65405;SDS011;52016;51.228;-2.322;2023-02-13T21:57:27;48.03;;;32.03;;
65405;SDS011;52016;51.228;-2.322;2023-02-13T22:05:07;48.30;;;31.50;;
65405;SDS011;52016;51.228;-2.322;2023-02-13T22:08:53;49.28;;;32.92;;
65405;SDS011;52016;51.228;-2.322;2023-02-13T22:12:43;46.80;;;31.25;;
65405;SDS011;52016;51.228;-2.322;2023-02-13T22:16:25;47.50;;;32.15;;
65405;SDS011;52016;51.228;-2.322;2023-02-13T22:20:08;52.65;;;34.83;;
65405;SDS011;52016;51.228;-2.322;2023-02-13T22:23:50;47.33;;;32.70;;
65405;SDS011;52016;51.228;-2.322;2023-02-13T22:27:32;61.42;;;37.38;;
65405;SDS011;52016;51.228;-2.322;2023-02-13T22:31:15;56.78;;;37.08;;
65405;SDS011;52016;51.228;-2.322;2023-02-13T22:34:58;55.05;;;35.70;;
65405;SDS011;52016;51.228;-2.322;2023-02-13T22:38:40;52.17;;;34.92;;
65405;SDS011;52016;51.228;-2.322;2023-02-13T22:42:22;61.67;;;41.88;;
65405;SDS011;52016;51.228;-2.322;2023-02-13T22:46:05;58.67;;;37.60;;
65405;SDS011;52016;51.228;-2.322;2023-02-13T22:49:50;60.90;;;40.35;;
65405;SDS011;52016;51.228;-2.322;2023-02-13T22:53:32;57.10;;;36.88;;
65405;SDS011;52016;51.228;-2.322;2023-02-13T22:57:15;54.63;;;35.03;;
65405;SDS011;52016;51.228;-2.322;2023-02-13T23:00:57;57.55;;;35.63;;
65405;SDS011;52016;51.228;-2.322;2023-02-13T23:04:40;51.00;;;35.13;;
65405;SDS011;52016;51.228;-2.322;2023-02-13T23:08:22;54.33;;;35.65;;
65405;SDS011;52016;51.228;-2.322;2023-02-13T23:12:04;61.80;;;37.47;;
65405;SDS011;52016;51.228;-2.322;2023-02-13T23:16:10;60.70;;;37.55;;
65405;SDS011;52016;51.228;-2.322;2023-02-13T23:19:54;60.65;;;38.55;;
65405;SDS011;52016;51.228;-2.322;2023-02-13T23:23:36;63.95;;;40.25;;
65405;SDS011;52016;51.228;-2.322;2023-02-13T23:27:18;64.18;;;39.03;;
65405;SDS011;52016;51.228;-2.322;2023-02-13T23:31:01;62.70;;;39.90;;
65405;SDS011;52016;51.228;-2.322;2023-02-13T23:34:44;63.55;;;39.92;;
65405;SDS011;52016;51.228;-2.322;2023-02-13T23:38:26;61.85;;;38.50;;
65405;SDS011;52016;51.228;-2.322;2023-02-13T23:42:08;64.05;;;40.55;;
65405;SDS011;52016;51.228;-2.322;2023-02-13T23:45:50;60.30;;;37.78;;
65405;SDS011;52016;51.228;-2.322;2023-02-13T23:49:33;61.53;;;39.13;;
65405;SDS011;52016;51.228;-2.322;2023-02-13T23:53:15;56.08;;;37.13;;
65405;SDS011;52016;51.228;-2.322;2023-02-13T23:56:57;58.42;;;36.47;;
